Time;durP1;ratioP1;P1;durP2;ratioP2;P2;SDS_P1;SDS_P2;PMS_P1;PMS_P2;Temp;Humidity;BMP_temperature;BMP_pressure;BME280_temperature;BME280_humidity;BME280_pressure;Samples;Min_cycle;Max_cycle;Signal;HPM_P1;HPM_P2
2022/02/26 00:02:19;;;;;;;735.17;673.33;;;2.20;99.90;;;;;;4990901;28;20486;-80
2022/02/26 00:04:46;;;;;;;736.37;674.60;;;2.30;99.90;;;;;;4989774;28;20455;-80
2022/02/26 00:07:13;;;;;;;738.83;676.27;;;2.30;99.90;;;;;;4989314;28;20485;-80
2022/02/26 00:09:40;;;;;;;727.87;666.77;;;2.40;99.90;;;;;;4987996;28;20458;-80
2022/02/26 00:12:08;;;;;;;731.37;670.40;;;2.50;99.90;;;;;;4970600;28;20478;-80
2022/02/26 00:14:35;;;;;;;730.43;670.20;;;2.50;99.90;;;;;;4988841;28;20454;-80
2022/02/26 00:17:02;;;;;;;725.70;666.50;;;2.60;99.90;;;;;;4988793;28;20454;-81
2022/02/26 00:19:31;;;;;;;725.63;666.67;;;2.60;99.90;;;;;;4988740;28;20457;-80
2022/02/26 00:21:59;;;;;;;717.60;659.50;;;2.60;99.90;;;;;;4988678;28;20478;-80
2022/02/26 00:24:26;;;;;;;719.83;661.80;;;2.80;99.90;;;;;;4988877;28;20461;-80
2022/02/26 00:26:52;;;;;;;717.50;661.10;;;2.70;99.90;;;;;;4988803;28;20991;-80
2022/02/26 00:29:19;;;;;;;716.03;660.53;;;2.60;99.90;;;;;;4987638;28;20469;-81
2022/02/26 00:31:46;;;;;;;707.10;650.40;;;2.80;99.90;;;;;;4988130;28;20485;-80
2022/02/26 00:34:13;;;;;;;721.00;664.67;;;2.80;99.90;;;;;;4988396;28;20856;-81
2022/02/26 00:36:41;;;;;;;722.30;666.40;;;2.80;99.90;;;;;;4988529;28;20463;-81
2022/02/26 00:39:08;;;;;;;731.00;676.30;;;2.90;99.90;;;;;;4988357;28;20465;-80
2022/02/26 00:41:35;;;;;;;728.10;673.40;;;2.70;99.90;;;;;;4988371;28;20475;-80
2022/02/26 00:44:02;;;;;;;728.43;672.07;;;2.70;99.90;;;;;;4989337;28;20461;-80
2022/02/26 00:46:29;;;;;;;721.70;665.87;;;2.60;99.90;;;;;;4988903;28;20844;-80
2022/02/26 00:51:46;;;;;;;713.97;658.97;;;2.70;99.90;;;;;;4961422;28;20549;-80
2022/02/26 00:54:12;;;;;;;719.13;661.33;;;2.60;99.90;;;;;;4986681;28;20451;-80
2022/02/26 00:56:41;;;;;;;701.77;645.07;;;2.70;99.90;;;;;;4986950;28;20446;-80
2022/02/26 00:59:08;;;;;;;705.40;647.60;;;2.90;99.90;;;;;;4986551;28;20447;-81
2022/02/26 01:01:37;;;;;;;710.63;654.23;;;3.00;99.90;;;;;;4986769;28;20473;-80
2022/02/26 01:04:05;;;;;;;701.30;647.03;;;3.10;99.90;;;;;;4985851;28;20451;-80
2022/02/26 01:06:31;;;;;;;703.07;649.40;;;3.30;99.90;;;;;;4986174;28;20471;-81
2022/02/26 01:09:01;;;;;;;705.30;652.23;;;3.30;99.90;;;;;;4987094;28;20478;-80
2022/02/26 01:11:28;;;;;;;706.17;653.97;;;3.30;99.90;;;;;;4986394;28;20451;-80
2022/02/26 01:13:55;;;;;;;717.70;665.97;;;3.50;99.90;;;;;;4985594;28;20455;-81
2022/02/26 01:16:21;;;;;;;718.50;667.67;;;3.30;99.90;;;;;;4985627;28;20457;-80
2022/02/26 01:18:48;;;;;;;722.07;670.97;;;3.20;99.90;;;;;;4985427;28;20462;-80
2022/02/26 01:21:15;;;;;;;726.57;673.00;;;3.10;99.90;;;;;;4985757;28;20462;-80
2022/02/26 01:23:42;;;;;;;729.30;676.30;;;3.00;99.90;;;;;;4985452;28;20461;-80
2022/02/26 01:26:10;;;;;;;728.53;675.47;;;3.20;99.90;;;;;;4985102;28;20482;-80
2022/02/26 01:28:36;;;;;;;711.53;659.37;;;3.30;99.90;;;;;;4984732;28;20455;-80
2022/02/26 01:31:03;;;;;;;707.87;656.07;;;3.30;99.90;;;;;;4985492;28;20454;-80
2022/02/26 01:33:32;;;;;;;710.40;658.73;;;3.30;99.90;;;;;;4986049;28;20482;-80
2022/02/26 01:36:00;;;;;;;708.97;656.87;;;3.20;99.90;;;;;;4985726;28;20490;-81
2022/02/26 01:38:29;;;;;;;718.13;665.60;;;3.40;99.90;;;;;;4985050;28;20887;-80
2022/02/26 01:41:04;;;;;;;710.37;658.30;;;3.30;99.90;;;;;;4985085;28;20519;-80
2022/02/26 01:43:35;;;;;;;708.73;656.77;;;3.30;99.90;;;;;;4966209;28;20489;-80
2022/02/26 01:46:10;;;;;;;713.57;661.60;;;3.30;99.90;;;;;;4967864;28;20535;-80
2022/02/26 01:48:40;;;;;;;701.67;650.70;;;3.60;99.90;;;;;;4966174;29;20467;-80
2022/02/26 01:51:13;;;;;;;695.03;645.77;;;3.40;99.90;;;;;;4970393;28;20459;-80
2022/02/26 01:53:43;;;;;;;703.17;655.77;;;3.50;99.90;;;;;;4986085;28;20459;-80
2022/02/26 01:56:13;;;;;;;700.70;651.83;;;3.60;99.90;;;;;;4986077;28;20471;-80
2022/02/26 01:58:45;;;;;;;703.77;654.87;;;3.60;99.90;;;;;;4985542;28;20549;-82
2022/02/26 02:01:16;;;;;;;697.97;649.07;;;3.70;99.90;;;;;;4984546;28;20454;-80
2022/02/26 02:03:48;;;;;;;702.67;653.60;;;3.70;99.90;;;;;;4984908;28;20939;-81
2022/02/26 02:06:21;;;;;;;704.17;655.37;;;3.30;99.90;;;;;;4984907;28;20474;-81
2022/02/26 02:08:57;;;;;;;695.47;647.47;;;3.60;99.90;;;;;;4984307;28;20470;-81
2022/02/26 02:11:31;;;;;;;691.40;644.20;;;3.60;99.90;;;;;;4984333;28;20482;-81
2022/02/26 02:14:08;;;;;;;694.37;646.87;;;3.60;99.90;;;;;;4985029;28;20463;-81
2022/02/26 02:16:39;;;;;;;701.73;654.03;;;3.60;99.90;;;;;;4985308;28;20538;-81
2022/02/26 02:19:13;;;;;;;702.17;654.80;;;3.70;99.90;;;;;;4984778;28;20478;-80
2022/02/26 02:21:48;;;;;;;700.47;653.43;;;3.60;99.90;;;;;;4984875;28;20478;-81
2022/02/26 02:24:20;;;;;;;701.07;656.07;;;3.60;99.90;;;;;;4983658;28;20474;-81
2022/02/26 02:26:51;;;;;;;697.10;652.10;;;3.60;99.90;;;;;;4985837;28;20489;-80
2022/02/26 02:29:27;;;;;;;698.20;651.50;;;3.60;99.90;;;;;;4984721;28;20462;-80
2022/02/26 02:31:57;;;;;;;709.20;661.83;;;3.50;99.90;;;;;;4984101;28;20479;-81
2022/02/26 02:34:32;;;;;;;707.33;659.10;;;3.60;99.90;;;;;;4985105;28;20968;-81
2022/02/26 02:37:02;;;;;;;715.20;666.27;;;3.40;99.90;;;;;;4985272;28;20446;-82
2022/02/26 02:39:33;;;;;;;714.37;665.30;;;3.30;99.90;;;;;;4984442;28;20463;-81
2022/02/26 02:42:04;;;;;;;714.87;665.30;;;3.50;99.90;;;;;;4984297;28;20514;-81
2022/02/26 02:44:48;;;;;;;713.03;663.07;;;3.40;99.90;;;;;;4984672;28;20463;-80
2022/02/26 02:47:22;;;;;;;718.40;666.80;;;3.20;99.90;;;;;;4984284;28;20497;-81
2022/02/26 02:50:15;;;;;;;714.10;664.20;;;3.40;99.90;;;;;;4983838;28;20886;-81
2022/02/26 02:52:48;;;;;;;727.23;676.83;;;3.00;99.90;;;;;;4984357;28;20574;-81
2022/02/26 02:55:21;;;;;;;739.10;688.80;;;3.10;99.90;;;;;;4981359;28;20450;-80
2022/02/26 02:57:52;;;;;;;729.37;677.07;;;2.90;99.90;;;;;;4981155;28;20858;-81
2022/02/26 03:00:39;;;;;;;726.03;673.67;;;2.80;99.90;;;;;;4982440;28;20486;-80
2022/02/26 03:03:12;;;;;;;732.60;675.07;;;2.60;99.90;;;;;;4984128;28;21009;-80
2022/02/26 03:05:47;;;;;;;738.57;678.57;;;2.90;99.90;;;;;;4984377;28;20459;-80
2022/02/26 03:08:15;;;;;;;739.03;680.20;;;3.00;99.90;;;;;;4984483;28;20982;-80
2022/02/26 03:10:48;;;;;;;757.03;698.53;;;2.80;99.90;;;;;;4983863;28;20463;-80
2022/02/26 03:13:20;;;;;;;751.80;695.60;;;2.60;99.90;;;;;;4983816;28;20898;-81
2022/02/26 03:15:54;;;;;;;755.50;699.00;;;2.50;99.90;;;;;;4984027;28;20451;-81
2022/02/26 03:18:24;;;;;;;775.17;717.37;;;2.10;99.90;;;;;;4983927;28;20489;-80
2022/02/26 03:20:52;;;;;;;772.83;713.97;;;1.90;99.90;;;;;;4984117;28;20474;-81
2022/02/26 03:23:22;;;;;;;772.77;712.77;;;1.80;99.90;;;;;;4983898;28;20502;-81
2022/02/26 03:25:53;;;;;;;775.77;714.27;;;1.60;99.90;;;;;;4983708;28;20482;-80
2022/02/26 03:28:22;;;;;;;780.53;719.17;;;1.30;99.90;;;;;;4983292;28;20852;-81
2022/02/26 03:30:51;;;;;;;786.03;720.53;;;1.10;99.90;;;;;;4983351;28;20455;-81
2022/02/26 03:33:25;;;;;;;795.20;726.30;;;1.30;99.90;;;;;;4983719;28;20486;-81
2022/02/26 03:35:54;;;;;;;786.63;718.33;;;1.00;99.90;;;;;;4983723;28;20439;-81
2022/02/26 03:38:26;;;;;;;780.07;712.47;;;0.60;99.90;;;;;;4983815;28;20506;-81
2022/02/26 03:41:05;;;;;;;794.90;723.23;;;0.60;99.90;;;;;;4983013;28;20462;-82
2022/02/26 03:43:36;;;;;;;811.07;739.80;;;0.50;99.90;;;;;;4983845;28;20571;-81
2022/02/26 03:46:13;;;;;;;826.93;753.53;;;0.40;99.90;;;;;;4984494;28;20549;-82
2022/02/26 03:48:40;;;;;;;845.40;771.20;;;0.50;99.90;;;;;;4991857;23;20498;-82
2022/02/26 03:51:07;;;;;;;847.30;772.00;;;0.30;99.90;;;;;;4976354;28;20447;-83
2022/02/26 03:53:34;;;;;;;841.97;767.87;;;0.30;99.90;;;;;;4977525;28;20451;-82
2022/02/26 03:56:02;;;;;;;838.93;768.17;;;0.30;99.90;;;;;;4976480;28;20458;-82
2022/02/26 03:58:29;;;;;;;840.37;768.57;;;0.20;99.90;;;;;;4976292;28;20480;-82
2022/02/26 04:00:55;;;;;;;835.50;762.87;;;0.00;99.90;;;;;;4976008;28;20459;-82
2022/02/26 04:03:22;;;;;;;854.17;782.43;;;-0.10;99.90;;;;;;4977579;28;20459;-82
2022/02/26 04:05:49;;;;;;;847.97;777.30;;;-0.20;99.90;;;;;;4975894;28;20450;-82
2022/02/26 04:08:17;;;;;;;855.67;782.10;;;-0.40;99.90;;;;;;4976307;28;20483;-82
2022/02/26 04:10:44;;;;;;;849.03;777.50;;;-0.40;99.90;;;;;;4975966;28;21109;-82
2022/02/26 04:13:12;;;;;;;857.57;786.00;;;-0.30;99.90;;;;;;4976797;28;20463;-83
2022/02/26 04:15:39;;;;;;;868.73;795.03;;;-0.30;99.90;;;;;;4976252;28;20807;-83
2022/02/26 04:18:06;;;;;;;857.80;784.75;;;-0.30;99.90;;;;;;4976750;28;20477;-82
2022/02/26 04:20:32;;;;;;;867.20;792.55;;;-0.30;99.90;;;;;;4976582;28;20184;-83
2022/02/26 04:22:59;;;;;;;874.90;802.00;;;-0.30;99.90;;;;;;4976834;28;20227;-84
2022/02/26 04:25:26;;;;;;;878.25;804.17;;;-0.40;99.90;;;;;;4976377;28;20477;-83
2022/02/26 04:27:53;;;;;;;878.70;805.80;;;-0.50;99.90;;;;;;4978529;28;20223;-83
2022/02/26 04:30:21;;;;;;;889.00;815.10;;;-0.40;99.90;;;;;;4980346;28;20458;-82
2022/02/26 04:32:48;;;;;;;891.05;814.72;;;-0.40;99.90;;;;;;4980180;28;20806;-82
2022/02/26 04:35:14;;;;;;;894.07;819.70;;;-0.50;99.90;;;;;;4979853;28;20196;-82
2022/02/26 04:37:41;;;;;;;890.92;816.55;;;-0.50;99.90;;;;;;4978934;28;21003;-82
2022/02/26 04:40:09;;;;;;;891.65;816.85;;;-0.60;99.90;;;;;;4979019;28;20191;-82
2022/02/26 04:42:37;;;;;;;895.17;820.33;;;-0.50;99.90;;;;;;4979234;28;20681;-82
2022/02/26 04:45:04;;;;;;;896.00;822.30;;;-0.70;99.90;;;;;;4979207;28;20961;-82
2022/02/26 04:47:32;;;;;;;907.93;831.93;;;-0.60;99.90;;;;;;4978338;28;20490;-81
2022/02/26 04:49:59;;;;;;;907.08;832.00;;;-0.60;99.90;;;;;;4977025;28;20454;-81
2022/02/26 04:52:26;;;;;;;917.40;840.53;;;-0.50;99.90;;;;;;4978815;28;20204;-83
2022/02/26 04:54:53;;;;;;;912.47;837.93;;;-0.50;99.90;;;;;;4979337;28;20455;-82
2022/02/26 04:57:19;;;;;;;907.47;833.57;;;-0.60;99.90;;;;;;4978526;28;20453;-82
2022/02/26 04:59:46;;;;;;;920.37;843.50;;;-0.70;99.90;;;;;;4977045;28;20465;-81
2022/02/26 05:02:13;;;;;;;913.60;837.72;;;-0.60;99.90;;;;;;4973819;28;20462;-82
2022/02/26 05:04:41;;;;;;;907.73;832.90;;;-0.60;99.90;;;;;;4978161;28;20699;-82
2022/02/26 05:07:08;;;;;;;899.67;827.33;;;-0.70;99.90;;;;;;4978042;28;20471;-82
2022/02/26 05:09:35;;;;;;;907.67;836.03;;;-0.80;99.90;;;;;;4979242;28;20455;-82
2022/02/26 05:12:01;;;;;;;900.80;830.33;;;-0.80;99.90;;;;;;4978461;28;20457;-81
2022/02/26 05:14:28;;;;;;;901.33;831.38;;;-0.90;99.90;;;;;;4978296;28;20968;-82
2022/02/26 05:16:55;;;;;;;905.73;833.77;;;-1.00;99.90;;;;;;4979654;28;20203;-82
2022/02/26 05:19:22;;;;;;;929.47;855.47;;;-1.20;99.90;;;;;;4976839;28;20470;-82
2022/02/26 05:21:50;;;;;;;912.83;840.70;;;-1.30;99.90;;;;;;4977569;28;20455;-82
2022/02/26 05:24:17;;;;;;;920.47;847.37;;;-1.20;99.90;;;;;;4977175;28;20469;-82
2022/02/26 05:26:44;;;;;;;921.58;847.20;;;-1.00;99.90;;;;;;4974529;28;20454;-82
2022/02/26 05:29:13;;;;;;;922.07;845.27;;;-0.90;99.90;;;;;;4977669;28;20219;-82
2022/02/26 05:31:46;;;;;;;941.83;864.13;;;-0.60;99.90;;;;;;4978742;28;20490;-83
2022/02/26 05:34:39;;;;;;;929.80;853.87;;;-0.80;99.90;;;;;;4979265;28;20475;-83
2022/02/26 05:37:07;;;;;;;931.13;856.20;;;-0.90;99.90;;;;;;4949651;28;20462;-82
2022/02/26 05:39:35;;;;;;;938.07;860.53;;;-0.80;99.90;;;;;;4978835;28;20451;-82
2022/02/26 05:42:10;;;;;;;930.63;855.27;;;-0.80;99.90;;;;;;4978967;28;20451;-83
2022/02/26 05:44:40;;;;;;;924.83;848.60;;;-0.70;99.90;;;;;;4977784;28;20459;-82
2022/02/26 05:47:17;;;;;;;924.67;852.85;;;-1.00;99.90;;;;;;4976798;28;20204;-82
2022/02/26 05:49:55;;;;;;;922.30;848.83;;;-1.20;99.90;;;;;;4979346;28;20207;-83
2022/02/26 05:52:41;;;;;;;923.97;848.65;;;-1.20;99.90;;;;;;4975254;28;20204;-83
2022/02/26 05:55:09;;;;;;;928.58;855.33;;;-1.30;99.90;;;;;;4974400;28;20199;-82
2022/02/26 05:57:36;;;;;;;914.35;841.65;;;-1.20;99.90;;;;;;4978650;28;20759;-82
2022/02/26 06:00:18;;;;;;;904.05;834.75;;;-1.30;99.90;;;;;;4980496;28;20219;-83
2022/02/26 06:02:52;;;;;;;907.90;834.00;;;-1.30;99.90;;;;;;4979448;28;20204;-82
2022/02/26 06:05:40;;;;;;;910.78;841.30;;;-1.50;99.90;;;;;;4979637;28;20195;-82
2022/02/26 06:08:25;;;;;;;921.15;847.85;;;-1.60;99.90;;;;;;4978400;28;20700;-82
2022/02/26 06:11:13;;;;;;;917.50;848.95;;;-1.50;99.90;;;;;;4978641;28;20641;-82
2022/02/26 06:13:43;;;;;;;915.35;844.80;;;-1.60;99.90;;;;;;4979298;28;20207;-83
2022/02/26 06:16:14;;;;;;;916.33;845.95;;;-1.90;99.90;;;;;;4978244;28;20279;-82
2022/02/26 06:18:41;;;;;;;934.38;864.47;;;-1.40;99.90;;;;;;4977178;28;20219;-83
2022/02/26 06:21:08;;;;;;;937.97;868.22;;;-1.40;99.90;;;;;;4977825;28;20191;-82
2022/02/26 06:23:36;;;;;;;941.20;871.10;;;-1.60;99.90;;;;;;4978478;28;20195;-82
2022/02/26 06:26:03;;;;;;;935.05;865.05;;;-1.50;99.90;;;;;;4978644;28;20196;-82
2022/02/26 06:28:44;;;;;;;925.50;855.85;;;-1.40;99.90;;;;;;4977782;28;20250;-82
2022/02/26 06:31:14;;;;;;;929.10;858.20;;;-1.70;99.90;;;;;;4977953;28;20219;-81
2022/02/26 06:33:41;;;;;;;923.17;853.33;;;-1.50;99.90;;;;;;4976074;28;20510;-82
2022/02/26 06:36:07;;;;;;;925.70;856.00;;;-1.70;99.90;;;;;;4975912;28;20207;-82
2022/02/26 06:38:35;;;;;;;926.53;857.10;;;-1.60;99.90;;;;;;4975442;28;20475;-81
2022/02/26 06:41:02;;;;;;;933.50;864.30;;;-1.60;99.90;;;;;;4975896;28;20200;-82
2022/02/26 06:43:29;;;;;;;928.28;858.65;;;-1.50;99.90;;;;;;4969682;28;20188;-82
2022/02/26 06:45:56;;;;;;;941.92;869.10;;;-1.60;99.90;;;;;;4973356;28;20200;-82
2022/02/26 06:48:22;;;;;;;954.28;879.00;;;-1.50;99.90;;;;;;4974786;28;20227;-82
2022/02/26 06:50:49;;;;;;;941.55;863.13;;;-1.10;99.90;;;;;;4972712;28;20712;-82
2022/02/26 06:53:16;;;;;;;942.70;862.90;;;-1.00;99.90;;;;;;4975609;28;20199;-83
2022/02/26 06:55:44;;;;;;;934.90;854.88;;;-0.90;99.90;;;;;;4975879;28;20583;-82
2022/02/26 06:58:10;;;;;;;935.17;852.57;;;-0.70;99.90;;;;;;4974316;28;20227;-82
2022/02/26 07:00:37;;;;;;;916.20;833.70;;;-0.40;99.90;;;;;;4977693;28;20459;-82
2022/02/26 07:03:04;;;;;;;913.72;828.92;;;-0.20;99.90;;;;;;4977786;28;20476;-82
2022/02/26 07:05:31;;;;;;;897.67;813.97;;;0.10;99.90;;;;;;4976853;28;20204;-82
2022/02/26 07:07:57;;;;;;;891.03;808.13;;;0.20;99.90;;;;;;4977604;28;20224;-82
2022/02/26 07:10:24;;;;;;;869.93;786.33;;;0.40;99.90;;;;;;4978219;28;20454;-82
2022/02/26 07:12:52;;;;;;;875.50;792.60;;;0.50;99.90;;;;;;4977595;28;20825;-82
2022/02/26 07:15:19;;;;;;;860.27;776.47;;;0.70;99.90;;;;;;4977232;28;20451;-82
2022/02/26 07:17:46;;;;;;;858.07;775.17;;;0.80;99.90;;;;;;4974921;28;20471;-82
2022/02/26 07:20:13;;;;;;;851.20;768.47;;;0.80;99.90;;;;;;4977590;28;20462;-82
2022/02/26 07:22:40;;;;;;;848.47;762.03;;;1.00;99.90;;;;;;4975820;28;20832;-82
2022/02/26 07:25:08;;;;;;;843.53;760.33;;;1.00;99.90;;;;;;4977583;28;20451;-83
2022/02/26 07:27:34;;;;;;;836.73;753.50;;;1.00;99.90;;;;;;4977693;28;20470;-83
2022/02/26 07:30:07;;;;;;;853.07;767.73;;;1.10;99.90;;;;;;4976559;28;20450;-83
2022/02/26 07:32:34;;;;;;;846.77;764.27;;;1.20;99.90;;;;;;4974182;28;20534;-82
2022/02/26 07:35:02;;;;;;;842.37;759.20;;;1.30;99.90;;;;;;4972508;28;20486;-83
2022/02/26 07:37:29;;;;;;;837.53;756.13;;;1.40;99.90;;;;;;4971825;28;20479;-82
2022/02/26 07:39:56;;;;;;;852.00;768.60;;;1.50;99.90;;;;;;4971947;28;20462;-80
2022/02/26 07:42:22;;;;;;;838.00;755.10;;;1.80;99.90;;;;;;4971360;28;20454;-82
2022/02/26 07:44:49;;;;;;;837.80;753.93;;;1.90;99.90;;;;;;4973106;28;20459;-81
2022/02/26 07:47:17;;;;;;;827.37;743.93;;;2.00;99.90;;;;;;4972322;28;20539;-82
2022/02/26 07:49:44;;;;;;;821.30;738.60;;;2.20;99.90;;;;;;4972435;28;20478;-82
2022/02/26 07:52:10;;;;;;;816.60;735.23;;;2.20;99.90;;;;;;4973163;28;20462;-82
2022/02/26 07:54:37;;;;;;;812.00;730.33;;;2.30;99.90;;;;;;4974101;28;20455;-82
2022/02/26 07:57:04;;;;;;;811.00;731.67;;;2.50;99.90;;;;;;4973633;28;20459;-80
2022/02/26 07:59:31;;;;;;;808.33;728.70;;;2.30;99.90;;;;;;4973109;28;20467;-81
2022/02/26 08:01:59;;;;;;;812.00;732.37;;;2.30;99.90;;;;;;4976100;28;20461;-81
2022/02/26 08:04:28;;;;;;;783.17;705.10;;;2.50;99.90;;;;;;4972157;28;20546;-80
2022/02/26 08:06:55;;;;;;;803.43;725.50;;;2.40;99.90;;;;;;4971945;28;20451;-81
2022/02/26 08:09:23;;;;;;;798.00;715.90;;;2.50;99.90;;;;;;4975963;28;20534;-81
2022/02/26 08:11:49;;;;;;;794.50;715.03;;;2.90;99.90;;;;;;4977320;28;20462;-80
2022/02/26 08:14:16;;;;;;;784.40;704.90;;;3.00;99.90;;;;;;4975820;28;20825;-81
2022/02/26 08:16:43;;;;;;;804.58;720.55;;;3.30;99.90;;;;;;4976021;28;20458;-83
2022/02/26 08:19:10;;;;;;;780.10;701.67;;;3.70;99.90;;;;;;4977275;28;20589;-83
2022/02/26 08:21:38;;;;;;;758.57;683.33;;;3.90;99.90;;;;;;4975965;28;20478;-81
2022/02/26 08:24:05;;;;;;;745.77;673.17;;;4.10;99.90;;;;;;4977283;28;20462;-81
2022/02/26 08:26:32;;;;;;;751.27;677.37;;;4.20;99.90;;;;;;4976815;28;20455;-81
2022/02/26 08:28:59;;;;;;;757.87;684.23;;;4.50;99.90;;;;;;4963651;28;20922;-81
2022/02/26 08:31:27;;;;;;;728.90;658.47;;;4.80;99.90;;;;;;4977578;28;20457;-81
2022/02/26 08:33:53;;;;;;;727.80;660.10;;;5.00;99.90;;;;;;4977748;28;20537;-82
2022/02/26 08:36:20;;;;;;;724.17;659.43;;;4.80;99.90;;;;;;4978200;28;20466;-82
2022/02/26 08:38:49;;;;;;;710.20;647.20;;;4.90;99.90;;;;;;4977316;28;20462;-83
2022/02/26 08:41:17;;;;;;;719.67;656.87;;;4.90;99.90;;;;;;4979070;28;20461;-84
2022/02/26 08:43:44;;;;;;;694.33;636.50;;;4.90;99.90;;;;;;4978411;28;20451;-83
2022/02/26 08:46:11;;;;;;;705.47;645.47;;;5.10;99.90;;;;;;4976876;28;20832;-81
2022/02/26 08:48:38;;;;;;;675.83;619.20;;;5.10;99.90;;;;;;4976155;28;20486;-82
2022/02/26 08:51:05;;;;;;;665.47;611.87;;;5.20;99.90;;;;;;4976557;28;20465;-82
2022/02/26 08:53:32;;;;;;;661.30;608.93;;;5.30;99.90;;;;;;4978133;28;20513;-81
2022/02/26 08:56:00;;;;;;;657.00;605.63;;;5.60;99.90;;;;;;4976732;28;20462;-81
2022/02/26 08:58:26;;;;;;;641.37;597.17;;;5.70;99.90;;;;;;4976874;28;20870;-85
2022/02/26 09:00:53;;;;;;;627.37;589.73;;;6.00;99.90;;;;;;4976848;28;20459;-84
2022/02/26 09:03:20;;;;;;;609.80;574.07;;;6.10;99.90;;;;;;4976131;28;20461;-83
2022/02/26 09:05:48;;;;;;;504.70;478.90;;;6.60;99.90;;;;;;4976107;28;20458;-84
2022/02/26 09:08:15;;;;;;;429.03;407.73;;;6.70;99.90;;;;;;4974267;28;21098;-84
2022/02/26 09:10:42;;;;;;;195.47;185.07;;;6.80;99.90;;;;;;4975603;28;20553;-84
2022/02/26 09:13:10;;;;;;;199.47;189.27;;;6.90;99.90;;;;;;4976259;28;20459;-84
2022/02/26 09:15:37;;;;;;;251.07;238.87;;;7.00;99.90;;;;;;4973772;28;20486;-83
2022/02/26 09:18:04;;;;;;;93.40;85.10;;;6.80;99.90;;;;;;4975470;28;20984;-84
2022/02/26 09:20:31;;;;;;;49.37;44.23;;;7.10;99.90;;;;;;4976926;28;20466;-84
2022/02/26 09:22:58;;;;;;;51.17;39.37;;;7.30;99.90;;;;;;4977477;28;20459;-84
2022/02/26 09:25:25;;;;;;;51.73;35.47;;;7.20;99.90;;;;;;4977814;28;20847;-84
2022/02/26 09:27:51;;;;;;;41.33;31.20;;;7.20;99.90;;;;;;4976985;28;20479;-84
2022/02/26 09:30:19;;;;;;;49.40;33.83;;;7.30;99.90;;;;;;4976147;28;20483;-84
2022/02/26 09:32:47;;;;;;;41.30;26.70;;;7.40;99.90;;;;;;4975026;28;20462;-84
2022/02/26 09:35:14;;;;;;;42.10;28.23;;;7.40;99.90;;;;;;4975486;28;21019;-84
2022/02/26 09:37:40;;;;;;;38.30;25.27;;;7.60;99.90;;;;;;4976412;28;20525;-85
2022/02/26 09:40:08;;;;;;;39.50;24.40;;;7.60;99.10;;;;;;4975230;28;20458;-84
2022/02/26 09:42:36;;;;;;;43.60;25.83;;;7.90;98.10;;;;;;4975879;28;20463;-84
2022/02/26 09:45:04;;;;;;;49.57;27.03;;;7.80;96.70;;;;;;4978151;28;20459;-84
2022/02/26 09:50:10;;;;;;;42.80;24.33;;;8.00;96.20;;;;;;4972950;28;20487;-82
2022/02/26 09:52:40;;;;;;;44.93;20.70;;;8.10;94.60;;;;;;4977587;28;20509;-83
2022/02/26 09:55:08;;;;;;;31.40;19.73;;;8.10;93.40;;;;;;4978436;28;20447;-82
2022/02/26 09:57:35;;;;;;;44.10;24.40;;;7.90;92.20;;;;;;4978266;28;20911;-82
2022/02/26 10:00:02;;;;;;;20.33;15.23;;;7.60;94.10;;;;;;4977904;28;20672;-83
2022/02/26 10:02:31;;;;;;;30.03;14.40;;;7.40;91.20;;;;;;4979385;28;20455;-82
2022/02/26 10:04:59;;;;;;;29.40;13.30;;;7.70;91.70;;;;;;4977866;28;20454;-82
2022/02/26 10:07:28;;;;;;;32.13;19.97;;;8.20;92.70;;;;;;4978600;28;20546;-82
2022/02/26 10:09:57;;;;;;;33.10;16.93;;;8.30;90.10;;;;;;4978187;28;20507;-83
2022/02/26 10:12:33;;;;;;;26.13;13.83;;;8.70;90.90;;;;;;4977813;28;20863;-82
2022/02/26 10:15:05;;;;;;;28.27;11.57;;;9.00;86.20;;;;;;4977631;28;20454;-82
2022/02/26 10:17:35;;;;;;;27.73;10.80;;;9.50;85.00;;;;;;4978090;28;20463;-82
2022/02/26 10:20:05;;;;;;;24.37;10.90;;;9.80;79.10;;;;;;4977369;28;20480;-82
2022/02/26 10:22:36;;;;;;;31.60;12.27;;;9.90;75.50;;;;;;4977926;28;20463;-82
2022/02/26 10:25:09;;;;;;;23.10;11.93;;;9.60;70.90;;;;;;4977529;28;20467;-82
2022/02/26 10:27:40;;;;;;;40.23;15.83;;;9.40;73.10;;;;;;4978841;28;20542;-80
2022/02/26 10:30:12;;;;;;;42.83;20.40;;;9.40;75.10;;;;;;4978621;28;20531;-82
2022/02/26 10:32:41;;;;;;;41.27;20.57;;;9.40;76.40;;;;;;4978157;28;20534;-82
2022/02/26 10:35:11;;;;;;;38.50;18.20;;;9.40;74.40;;;;;;4978029;28;20451;-84
2022/02/26 10:37:39;;;;;;;38.97;19.50;;;10.20;70.30;;;;;;4978155;28;20595;-82
2022/02/26 10:40:07;;;;;;;35.60;19.20;;;10.20;65.00;;;;;;4977401;28;20455;-83
2022/02/26 10:42:36;;;;;;;38.23;18.50;;;10.10;63.30;;;;;;4977355;28;20454;-82
2022/02/26 10:45:08;;;;;;;33.27;20.40;;;10.20;64.10;;;;;;4977693;28;20455;-83
2022/02/26 10:47:37;;;;;;;39.27;22.80;;;11.00;64.70;;;;;;4977568;28;20459;-82
2022/02/26 10:50:18;;;;;;;35.17;20.17;;;10.90;61.80;;;;;;4977163;28;20860;-83
2022/02/26 10:52:57;;;;;;;37.57;18.40;;;11.00;57.20;;;;;;4977162;28;20466;-83
2022/02/26 10:55:44;;;;;;;46.80;20.20;;;10.80;55.70;;;;;;4977199;28;20466;-83
2022/02/26 10:58:18;;;;;;;39.73;20.83;;;10.20;56.90;;;;;;4977235;28;21006;-83
2022/02/26 11:00:45;;;;;;;42.23;18.57;;;11.10;58.20;;;;;;4977155;28;20459;-83
2022/02/26 11:03:12;;;;;;;44.83;25.10;;;12.20;55.00;;;;;;4977520;28;20456;-83
2022/02/26 11:05:39;;;;;;;46.73;26.40;;;12.90;49.80;;;;;;4977769;28;20471;-83
2022/02/26 11:08:07;;;;;;;35.77;20.20;;;13.30;46.30;;;;;;4975832;28;20473;-82
2022/02/26 11:10:35;;;;;;;34.60;20.90;;;13.30;40.80;;;;;;4957961;28;20493;-84
2022/02/26 11:13:01;;;;;;;38.47;18.73;;;13.40;40.30;;;;;;4977342;28;20458;-83
2022/02/26 11:15:31;;;;;;;31.40;21.57;;;13.50;36.00;;;;;;4977574;28;20455;-83
2022/02/26 11:17:59;;;;;;;33.87;20.67;;;13.90;40.20;;;;;;4977637;28;20455;-83
2022/02/26 11:20:27;;;;;;;35.97;22.30;;;14.30;39.00;;;;;;4978100;28;20451;-83
2022/02/26 11:22:56;;;;;;;39.80;22.20;;;14.00;31.30;;;;;;4978539;28;20467;-82
2022/02/26 11:25:26;;;;;;;38.77;23.10;;;14.10;30.50;;;;;;4976910;28;20453;-83
2022/02/26 11:27:53;;;;;;;42.07;24.77;;;14.40;35.70;;;;;;4978667;28;20461;-85
2022/02/26 11:30:25;;;;;;;43.50;22.37;;;15.10;31.30;;;;;;4978267;28;20473;-84
2022/02/26 11:32:52;;;;;;;36.37;20.80;;;14.80;30.40;;;;;;4979619;28;20465;-83
2022/02/26 11:35:34;;;;;;;43.47;21.33;;;15.10;29.20;;;;;;4977941;28;20846;-83
2022/02/26 11:38:08;;;;;;;37.90;19.90;;;15.40;29.70;;;;;;4971046;28;20855;-83
2022/02/26 11:40:36;;;;;;;40.73;19.90;;;14.60;29.10;;;;;;4977293;28;20556;-83
2022/02/26 11:43:03;;;;;;;37.77;18.37;;;14.40;30.10;;;;;;4976522;28;20533;-83
2022/02/26 11:45:32;;;;;;;32.90;17.10;;;14.50;30.20;;;;;;4975964;28;20456;-82
2022/02/26 11:48:00;;;;;;;35.93;16.27;;;14.30;28.20;;;;;;4975156;28;20865;-82
2022/02/26 11:50:28;;;;;;;36.87;17.77;;;14.10;26.90;;;;;;4975106;28;20450;-82
2022/02/26 11:52:58;;;;;;;32.80;15.50;;;14.30;28.30;;;;;;4976204;28;20843;-82
2022/02/26 11:55:30;;;;;;;29.57;15.23;;;14.30;27.50;;;;;;4976953;28;20460;-83
2022/02/26 11:58:01;;;;;;;27.40;15.30;;;13.90;27.00;;;;;;4976295;28;20453;-83
2022/02/26 12:00:32;;;;;;;34.73;15.87;;;14.00;27.40;;;;;;4974003;28;20473;-82
2022/02/26 12:03:32;;;;;;;32.57;12.33;;;14.20;27.60;;;;;;4976155;28;20452;-83
2022/02/26 12:06:36;;;;;;;29.80;11.20;;;14.10;24.90;;;;;;4976779;28;20460;-83
2022/02/26 12:09:18;;;;;;;35.53;11.97;;;13.40;25.40;;;;;;4975725;28;20524;-83
2022/02/26 12:11:47;;;;;;;34.53;14.53;;;13.30;26.50;;;;;;4975336;28;20556;-82
2022/02/26 12:14:30;;;;;;;25.90;13.90;;;12.80;27.90;;;;;;4976072;28;20450;-82
2022/02/26 12:17:02;;;;;;;41.20;21.80;;;12.50;27.90;;;;;;4976132;28;20494;-83
2022/02/26 12:19:29;;;;;;;37.63;18.23;;;12.20;29.40;;;;;;4975312;28;20486;-82
2022/02/26 12:21:59;;;;;;;33.93;17.87;;;12.20;30.50;;;;;;4975339;28;20606;-82
2022/02/26 12:24:27;;;;;;;35.33;14.90;;;11.90;32.50;;;;;;4975742;28;20489;-83
2022/02/26 12:27:10;;;;;;;35.50;15.23;;;11.70;33.10;;;;;;4976633;28;20497;-83
2022/02/26 12:29:55;;;;;;;39.00;18.00;;;11.30;38.00;;;;;;4973225;28;20493;-81
2022/02/26 12:32:24;;;;;;;42.33;18.60;;;10.50;38.10;;;;;;4974867;28;20454;-83
2022/02/26 12:35:05;;;;;;;33.77;16.50;;;10.30;40.30;;;;;;4975814;28;20447;-82
2022/02/26 12:37:34;;;;;;;33.57;16.33;;;10.70;36.10;;;;;;4975452;28;20513;-82